0 Max
34 km/h
0 Mini

LFMY 240230Z AUTO 01001KT CAVOK 18/16 Q1017

TAF LFMY 231518Z 2315/2415 CNL